Time;durP1;ratioP1;P1;durP2;ratioP2;P2;SDS_P1;SDS_P2;PMS_P1;PMS_P2;Temp;Humidity;BMP_temperature;BMP_pressure;BME280_temperature;BME280_humidity;BME280_pressure;Samples;Min_cycle;Max_cycle;Signal;HPM_P1;HPM_P2
2021/12/05 00:23:40;;;;;;;2.10;1.80;;;4.40;99.90;;;;;;4973250;28;20218;-90
2021/12/05 00:26:16;;;;;;;2.20;1.77;;;4.40;99.90;;;;;;4977039;28;20208;-90
2021/12/05 00:31:56;;;;;;;1.37;1.07;;;4.40;99.90;;;;;;4995704;28;20213;-90
2021/12/05 01:03:39;;;;;;;1.80;1.70;;;4.00;99.90;;;;;;4990263;28;20266;-91
2021/12/05 01:09:31;;;;;;;2.60;2.30;;;4.10;99.90;;;;;;4976576;28;20210;-91
2021/12/05 01:15:03;;;;;;;2.73;1.60;;;4.10;99.90;;;;;;4994980;28;20237;-90
2021/12/05 01:17:42;;;;;;;3.47;2.23;;;4.00;99.90;;;;;;5004257;28;20203;-92
2021/12/05 01:20:19;;;;;;;3.53;2.00;;;4.00;99.90;;;;;;5006763;28;20178;-91
2021/12/05 01:22:58;;;;;;;3.20;2.20;;;4.00;99.90;;;;;;5003913;28;20212;-92
2021/12/05 01:25:40;;;;;;;3.90;2.03;;;4.10;99.90;;;;;;4998866;28;20246;-90
2021/12/05 01:28:25;;;;;;;2.83;1.90;;;4.10;99.90;;;;;;5179390;23;20320;-92
2021/12/05 01:31:26;;;;;;;2.63;2.30;;;4.00;99.90;;;;;;5050195;28;20240;-92
2021/12/05 01:34:11;;;;;;;2.47;2.27;;;4.00;99.90;;;;;;5042283;28;20193;-92
2021/12/05 01:36:57;;;;;;;3.77;2.40;;;4.00;99.90;;;;;;5049190;28;20236;-91
2021/12/05 01:54:06;;;;;;;3.30;3.00;;;4.00;99.90;;;;;;5000162;28;20270;-91
2021/12/05 01:59:51;;;;;;;3.43;3.13;;;3.90;99.90;;;;;;5020309;28;20694;-92
2021/12/05 02:16:35;;;;;;;4.20;3.33;;;4.00;99.90;;;;;;4971533;28;20211;-90
2021/12/05 02:33:43;;;;;;;3.43;3.10;;;4.10;99.90;;;;;;4964660;29;20207;-90
2021/12/05 02:39:23;;;;;;;4.53;3.70;;;4.10;99.90;;;;;;4960996;29;20243;-90
2021/12/05 02:42:08;;;;;;;3.97;3.57;;;4.10;99.90;;;;;;4967424;29;20204;-89
2021/12/05 02:44:41;;;;;;;3.90;3.53;;;4.10;99.90;;;;;;4970302;28;20204;-89
2021/12/05 02:47:16;;;;;;;4.93;4.30;;;4.10;99.90;;;;;;4971823;29;20257;-90
2021/12/05 02:49:50;;;;;;;3.90;3.50;;;4.10;99.90;;;;;;4963156;29;20200;-93
2021/12/05 02:52:27;;;;;;;8.30;7.50;;;4.20;99.90;;;;;;4964548;29;20234;-96
2021/12/05 02:57:59;;;;;;;5.07;4.67;;;4.10;99.90;;;;;;4970905;29;20220;-93
2021/12/05 03:00:43;;;;;;;4.90;4.50;;;4.10;99.90;;;;;;4975089;28;20232;-93
2021/12/05 03:03:21;;;;;;;4.63;3.53;;;4.10;99.90;;;;;;4967176;29;20210;-91
2021/12/05 03:05:58;;;;;;;4.73;4.10;;;4.00;99.90;;;;;;4961933;29;20232;-92
2021/12/05 03:08:29;;;;;;;8.73;7.60;;;4.00;99.90;;;;;;4973893;29;20595;-88
2021/12/05 03:11:05;;;;;;;5.30;4.80;;;3.90;99.90;;;;;;4921982;22;10001798;-88
2021/12/05 03:13:39;;;;;;;7.17;5.60;;;3.80;99.90;;;;;;5049925;28;20200;-89
2021/12/05 03:16:13;;;;;;;5.20;4.70;;;3.70;99.90;;;;;;5041856;28;20212;-85
2021/12/05 03:18:46;;;;;;;6.47;5.43;;;3.60;99.90;;;;;;5046450;28;20248;-88
2021/12/05 03:21:18;;;;;;;5.57;5.07;;;3.60;99.90;;;;;;5043494;28;20634;-88
2021/12/05 03:23:53;;;;;;;5.20;4.70;;;3.50;99.90;;;;;;5046033;28;20231;-85
2021/12/05 03:27:01;;;;;;;8.07;5.97;;;3.40;99.90;;;;;;5043251;28;20229;-89
2021/12/05 03:29:39;;;;;;;5.13;4.60;;;3.40;99.90;;;;;;5045926;28;20201;-89
2021/12/05 03:32:10;;;;;;;9.80;6.70;;;3.30;99.90;;;;;;5045435;28;20205;-89
2021/12/05 03:34:46;;;;;;;9.70;8.70;;;3.20;99.90;;;;;;5048979;28;20220;-90
2021/12/05 03:37:17;;;;;;;11.20;10.00;;;3.20;99.90;;;;;;5048926;28;20211;-91
2021/12/05 03:39:48;;;;;;;10.03;9.00;;;3.10;99.90;;;;;;5051382;28;20197;-90
2021/12/05 03:42:19;;;;;;;7.60;6.53;;;3.10;99.90;;;;;;5042895;28;20213;-90
2021/12/05 03:44:52;;;;;;;7.00;6.27;;;3.00;99.90;;;;;;5038791;28;20272;-90
2021/12/05 03:47:27;;;;;;;5.90;5.33;;;3.00;99.90;;;;;;5037164;28;20255;-90
2021/12/05 03:50:01;;;;;;;9.33;6.97;;;3.00;99.90;;;;;;5042717;28;20204;-90
2021/12/05 03:52:35;;;;;;;9.70;7.37;;;3.00;99.90;;;;;;5046900;28;20672;-90
2021/12/05 03:55:12;;;;;;;13.47;8.80;;;3.00;99.90;;;;;;5048787;28;20228;-89
2021/12/05 03:57:44;;;;;;;8.77;6.83;;;3.00;99.90;;;;;;5032244;28;20208;-87
2021/12/05 04:00:25;;;;;;;8.20;6.30;;;3.00;99.90;;;;;;5045135;28;20225;-89
2021/12/05 04:03:00;;;;;;;9.90;6.23;;;3.00;99.90;;;;;;5042402;28;20212;-89
2021/12/05 04:05:34;;;;;;;8.70;6.13;;;3.00;99.90;;;;;;5046705;28;20195;-90
2021/12/05 04:08:07;;;;;;;7.20;6.50;;;3.00;99.90;;;;;;5046040;28;20228;-89
2021/12/05 04:10:45;;;;;;;8.47;5.90;;;2.90;99.90;;;;;;5048684;28;20212;-90
2021/12/05 04:13:17;;;;;;;6.23;5.63;;;2.90;99.90;;;;;;5046041;28;20193;-90
2021/12/05 04:15:53;;;;;;;8.57;5.90;;;2.80;99.90;;;;;;5042419;28;20193;-90
2021/12/05 04:18:26;;;;;;;6.67;6.03;;;2.80;99.90;;;;;;5040582;28;20212;-91
2021/12/05 04:20:59;;;;;;;6.33;5.30;;;2.80;99.90;;;;;;5038409;28;20205;-90
2021/12/05 04:23:31;;;;;;;5.67;4.93;;;2.70;99.90;;;;;;5035618;28;20304;-90
2021/12/05 04:26:02;;;;;;;6.07;5.30;;;2.70;99.90;;;;;;5036412;28;20311;-91
2021/12/05 04:28:33;;;;;;;5.60;5.00;;;2.60;99.90;;;;;;5036143;28;20228;-94
2021/12/05 04:31:08;;;;;;;5.47;4.73;;;2.60;99.90;;;;;;5034314;28;20211;-94
2021/12/05 04:33:40;;;;;;;5.80;4.60;;;2.60;99.90;;;;;;5020557;28;20203;-93
2021/12/05 04:36:13;;;;;;;6.10;4.60;;;2.60;99.90;;;;;;5040273;28;20215;-93
2021/12/05 04:38:44;;;;;;;6.90;5.13;;;2.50;99.90;;;;;;5041799;28;20213;-93
2021/12/05 04:41:16;;;;;;;5.43;4.70;;;2.50;99.90;;;;;;5048190;28;20664;-93
2021/12/05 04:43:49;;;;;;;9.10;5.40;;;2.40;99.90;;;;;;5046315;28;20220;-93
2021/12/05 04:46:27;;;;;;;6.97;5.47;;;2.30;99.90;;;;;;5048199;28;20226;-93
2021/12/05 04:49:00;;;;;;;6.53;5.87;;;2.40;99.90;;;;;;5049408;28;20193;-92
2021/12/05 04:51:34;;;;;;;7.53;6.50;;;2.30;99.90;;;;;;5130941;23;20657;-93
2021/12/05 04:54:07;;;;;;;10.50;8.57;;;2.20;99.90;;;;;;5019117;28;20297;-93
2021/12/05 04:56:40;;;;;;;11.90;10.00;;;2.20;99.90;;;;;;5008795;28;20201;-93
2021/12/05 04:59:14;;;;;;;11.70;10.40;;;2.20;99.90;;;;;;5014305;28;20225;-93
2021/12/05 05:01:51;;;;;;;13.13;11.20;;;2.20;99.90;;;;;;5017763;28;20202;-92
2021/12/05 05:04:26;;;;;;;13.60;10.80;;;2.10;99.90;;;;;;5018949;28;20269;-93
2021/12/05 05:07:00;;;;;;;10.83;9.60;;;2.10;99.90;;;;;;5022593;28;20224;-93
2021/12/05 05:09:32;;;;;;;14.20;10.93;;;2.00;99.90;;;;;;5008944;28;20264;-92
2021/12/05 05:12:04;;;;;;;14.47;11.20;;;2.00;99.90;;;;;;5016746;28;20245;-92
2021/12/05 05:14:36;;;;;;;11.00;9.57;;;1.90;99.90;;;;;;5018785;28;20205;-92
2021/12/05 05:17:11;;;;;;;14.40;11.20;;;1.90;99.90;;;;;;5019228;28;20218;-92
2021/12/05 05:19:48;;;;;;;14.10;10.90;;;1.80;99.90;;;;;;5014274;28;20522;-92
2021/12/05 05:22:32;;;;;;;12.63;10.17;;;1.90;99.90;;;;;;5024685;28;20206;-92
2021/12/05 05:25:31;;;;;;;13.20;10.20;;;1.90;99.90;;;;;;5029406;28;20253;-93
2021/12/05 05:28:27;;;;;;;11.93;9.50;;;1.90;99.90;;;;;;5024369;28;20236;-93
2021/12/05 05:45:34;;;;;;;12.33;9.60;;;1.80;99.90;;;;;;5013847;28;20232;-89
2021/12/05 05:48:30;;;;;;;11.77;9.80;;;1.70;99.90;;;;;;5015527;28;20282;-89
2021/12/05 05:51:05;;;;;;;19.00;14.40;;;1.70;99.90;;;;;;5014871;28;20236;-89
2021/12/05 05:53:37;;;;;;;20.67;15.60;;;1.70;99.90;;;;;;5011957;28;20232;-88
2021/12/05 05:56:18;;;;;;;16.07;13.67;;;1.70;99.90;;;;;;5017404;28;20213;-92
2021/12/05 05:58:54;;;;;;;18.13;13.83;;;1.60;99.90;;;;;;5016239;28;20202;-89
2021/12/05 06:01:44;;;;;;;15.87;13.77;;;1.60;99.90;;;;;;5018151;28;20206;-90
2021/12/05 06:04:16;;;;;;;15.03;12.27;;;1.60;99.90;;;;;;5018585;28;20210;-90
2021/12/05 06:06:55;;;;;;;16.17;11.93;;;1.60;99.90;;;;;;5022252;28;20190;-87
2021/12/05 06:09:28;;;;;;;15.07;12.27;;;1.60;99.90;;;;;;5022457;28;20189;-90
2021/12/05 06:11:59;;;;;;;14.40;11.97;;;1.50;99.90;;;;;;5017902;28;20225;-93
2021/12/05 06:14:31;;;;;;;15.97;12.47;;;1.50;99.90;;;;;;5006806;28;20571;-91
2021/12/05 06:17:02;;;;;;;17.63;12.50;;;1.50;99.90;;;;;;5006423;28;20248;-92
2021/12/05 06:19:36;;;;;;;19.47;12.57;;;1.50;99.90;;;;;;5009035;28;20210;-92
2021/12/05 06:22:10;;;;;;;18.70;12.27;;;1.40;99.90;;;;;;5010679;28;20264;-92
2021/12/05 06:24:41;;;;;;;16.97;12.07;;;1.40;99.90;;;;;;5009208;28;20209;-92
2021/12/05 06:27:13;;;;;;;15.37;11.27;;;1.50;99.90;;;;;;5009948;28;20226;-94
2021/12/05 06:29:50;;;;;;;15.30;10.83;;;1.50;99.90;;;;;;5011685;28;20208;-93
2021/12/05 06:36:46;;;;;;;14.47;10.90;;;1.50;99.90;;;;;;5009653;28;20611;-91
2021/12/05 06:38:40;;;;;;;13.83;10.30;;;1.40;99.90;;;;;;5011131;28;20564;-91
2021/12/05 06:41:21;;;;;;;13.20;10.10;;;1.40;99.90;;;;;;5008732;28;20234;-91
2021/12/05 06:46:41;;;;;;;14.63;11.03;;;1.30;99.90;;;;;;5008853;28;20298;-93
2021/12/05 06:49:12;;;;;;;14.67;10.50;;;1.30;99.90;;;;;;5010557;28;20226;-92
2021/12/05 06:51:43;;;;;;;12.43;9.77;;;1.30;99.90;;;;;;5007705;28;20332;-91
2021/12/05 06:54:17;;;;;;;14.60;10.07;;;1.30;99.90;;;;;;5020855;28;20206;-93
2021/12/05 06:56:49;;;;;;;13.20;10.07;;;1.30;99.90;;;;;;5006114;28;20210;-92
2021/12/05 06:59:21;;;;;;;12.20;9.40;;;1.30;99.90;;;;;;5015879;28;20202;-92
2021/12/05 07:01:52;;;;;;;13.60;9.60;;;1.30;99.90;;;;;;5015327;28;20262;-91
2021/12/05 07:07:21;;;;;;;16.27;9.73;;;1.20;99.90;;;;;;4996570;28;20230;-91
2021/12/05 07:09:55;;;;;;;12.03;10.13;;;1.20;99.90;;;;;;5010176;28;20268;-91
2021/12/05 07:15:16;;;;;;;11.47;8.87;;;1.20;99.90;;;;;;5006130;28;20283;-91
2021/12/05 07:20:50;;;;;;;14.73;9.33;;;1.20;99.90;;;;;;5007960;28;20211;-92
2021/12/05 07:23:44;;;;;;;11.83;8.90;;;1.20;99.90;;;;;;5007133;28;20252;-91
2021/12/05 07:26:23;;;;;;;10.53;8.47;;;1.20;99.90;;;;;;5014375;28;20205;-91
2021/12/05 07:40:28;;;;;;;13.30;9.27;;;1.00;99.90;;;;;;5025151;28;20325;-91
2021/12/05 07:43:06;;;;;;;12.57;9.40;;;1.10;99.90;;;;;;5072098;23;20240;-92
2021/12/05 07:45:42;;;;;;;14.50;9.53;;;1.00;99.90;;;;;;5034965;28;20233;-92
2021/12/05 07:48:20;;;;;;;11.10;8.37;;;1.00;99.90;;;;;;5027003;28;20239;-91
2021/12/05 07:51:02;;;;;;;12.93;9.50;;;1.00;99.90;;;;;;5028767;28;20232;-92
2021/12/05 07:53:40;;;;;;;23.37;9.80;;;0.90;99.90;;;;;;5025080;28;20300;-93
2021/12/05 07:56:16;;;;;;;38.50;10.77;;;0.90;99.90;;;;;;5031133;28;20232;-92
2021/12/05 07:59:08;;;;;;;19.67;9.33;;;0.90;99.90;;;;;;5060890;23;20241;-92
2021/12/05 08:15:47;;;;;;;11.87;9.47;;;0.70;99.90;;;;;;5016790;28;20243;-92
2021/12/05 08:18:28;;;;;;;10.67;8.90;;;0.70;99.90;;;;;;5018452;28;20570;-93
2021/12/05 08:21:02;;;;;;;10.33;8.60;;;0.60;99.90;;;;;;5011529;28;20633;-91
2021/12/05 08:23:35;;;;;;;11.10;8.73;;;0.70;99.90;;;;;;5014903;28;20259;-92
2021/12/05 08:26:09;;;;;;;11.73;8.93;;;0.60;99.90;;;;;;5014864;28;20241;-91
2021/12/05 08:28:58;;;;;;;10.57;8.67;;;0.60;99.90;;;;;;5000313;28;20256;-92
2021/12/05 08:31:42;;;;;;;11.33;8.53;;;0.70;99.90;;;;;;5015798;28;20281;-91
2021/12/05 08:34:39;;;;;;;11.47;8.60;;;0.70;99.90;;;;;;5018872;28;20217;-91
2021/12/05 09:51:17;;;;;;;7.80;5.73;;;0.60;99.90;;;;;;5026680;28;20237;-93
2021/12/05 10:14:00;;;;;;;7.77;4.90;;;0.60;99.90;;;;;;5010702;28;20214;-92
2021/12/05 10:16:53;;;;;;;6.13;4.30;;;0.70;99.90;;;;;;5017212;28;20591;-92
2021/12/05 10:20:05;;;;;;;5.33;4.17;;;0.60;99.90;;;;;;5017235;28;20206;-92
2021/12/05 10:34:24;;;;;;;4.93;3.67;;;1.00;99.90;;;;;;4959347;29;20220;-91
2021/12/05 10:37:09;;;;;;;4.97;4.00;;;1.10;99.90;;;;;;4992420;28;20228;-90
2021/12/05 10:39:42;;;;;;;4.30;3.63;;;1.20;99.90;;;;;;5016582;28;20544;-91
2021/12/05 10:42:37;;;;;;;5.07;4.37;;;1.20;99.90;;;;;;5026154;28;20284;-92
2021/12/05 10:45:11;;;;;;;5.50;4.67;;;1.30;99.90;;;;;;5017198;28;20275;-91
2021/12/05 10:47:49;;;;;;;5.33;4.10;;;1.30;99.90;;;;;;5021244;28;20272;-92
2021/12/05 10:50:32;;;;;;;6.77;4.43;;;1.40;99.90;;;;;;5016168;28;20249;-90
2021/12/05 10:53:22;;;;;;;4.83;4.27;;;1.40;99.90;;;;;;5011455;28;20198;-90
2021/12/05 10:55:58;;;;;;;6.70;5.00;;;1.40;99.90;;;;;;5017459;28;20236;-92
2021/12/05 10:58:39;;;;;;;6.93;4.97;;;1.50;99.90;;;;;;5018615;28;20217;-92
2021/12/05 11:01:14;;;;;;;6.53;4.57;;;1.50;99.90;;;;;;5017142;28;20233;-92
2021/12/05 11:03:50;;;;;;;6.87;5.03;;;1.50;99.90;;;;;;5018003;28;20665;-92
2021/12/05 11:06:27;;;;;;;6.53;4.80;;;1.50;99.90;;;;;;5018007;28;20284;-91
2021/12/05 11:09:02;;;;;;;6.60;5.63;;;1.60;99.90;;;;;;5017175;28;20221;-92
2021/12/05 11:11:35;;;;;;;5.80;4.73;;;1.60;99.90;;;;;;5017703;28;20637;-90
2021/12/05 11:14:13;;;;;;;9.83;5.83;;;1.60;99.90;;;;;;5018429;28;20206;-91
2021/12/05 11:16:52;;;;;;;8.57;5.50;;;1.70;99.90;;;;;;5014181;28;20217;-92
2021/12/05 11:19:34;;;;;;;8.00;5.70;;;1.70;99.90;;;;;;5015816;28;20285;-91
2021/12/05 11:22:10;;;;;;;8.43;5.40;;;1.70;99.90;;;;;;5019828;28;20548;-91
2021/12/05 11:24:43;;;;;;;7.33;5.93;;;1.70;99.90;;;;;;5020758;28;20300;-92
2021/12/05 11:27:19;;;;;;;9.10;6.23;;;1.80;99.90;;;;;;5015768;28;20268;-91
2021/12/05 11:29:59;;;;;;;7.97;5.63;;;1.80;99.90;;;;;;5017204;28;20256;-91
2021/12/05 11:32:38;;;;;;;7.30;4.87;;;1.80;99.90;;;;;;5016168;28;20202;-91
2021/12/05 11:35:21;;;;;;;6.03;5.37;;;1.70;99.90;;;;;;5017810;28;20224;-90
2021/12/05 11:37:55;;;;;;;5.37;4.80;;;1.70;99.90;;;;;;5016462;28;20198;-90
2021/12/05 11:40:30;;;;;;;5.17;4.10;;;1.80;99.90;;;;;;5016669;28;20206;-90
2021/12/05 11:43:03;;;;;;;31.60;6.23;;;1.80;99.90;;;;;;5016031;28;20228;-91
2021/12/05 11:45:54;;;;;;;16.63;5.77;;;1.80;99.90;;;;;;5016606;28;20486;-91
2021/12/05 11:48:32;;;;;;;7.83;4.67;;;1.60;99.90;;;;;;5015417;28;20213;-91
2021/12/05 11:51:19;;;;;;;11.67;5.83;;;1.60;99.90;;;;;;5015791;28;20229;-91
2021/12/05 11:53:52;;;;;;;6.87;4.80;;;1.60;99.90;;;;;;5017158;28;20236;-91
2021/12/05 11:56:37;;;;;;;6.70;5.00;;;1.60;99.90;;;;;;5015977;28;20225;-92
2021/12/05 11:59:12;;;;;;;8.40;5.47;;;1.60;99.90;;;;;;5017692;28;20268;-91
2021/12/05 12:01:46;;;;;;;6.97;5.13;;;1.60;99.90;;;;;;5018129;28;20243;-92
2021/12/05 12:04:21;;;;;;;6.60;5.07;;;1.70;99.90;;;;;;5018000;28;20228;-92
2021/12/05 12:07:13;;;;;;;5.23;4.50;;;1.70;99.90;;;;;;5018563;28;20209;-92
2021/12/05 12:09:46;;;;;;;5.00;4.10;;;1.70;99.90;;;;;;5020086;28;20229;-92
2021/12/05 12:12:19;;;;;;;4.93;3.90;;;1.80;99.90;;;;;;5030754;28;20213;-92
2021/12/05 12:14:50;;;;;;;5.73;4.57;;;1.90;99.90;;;;;;5034670;28;20190;-92
2021/12/05 12:17:22;;;;;;;5.23;3.90;;;1.80;99.90;;;;;;5033059;28;20198;-91
2021/12/05 12:19:56;;;;;;;5.57;4.33;;;1.80;99.90;;;;;;5034547;28;20197;-92
2021/12/05 12:22:30;;;;;;;5.17;4.23;;;1.90;99.90;;;;;;5032795;28;20206;-92
2021/12/05 12:25:04;;;;;;;12.30;4.17;;;1.90;99.90;;;;;;5027077;28;20662;-92
2021/12/05 12:27:36;;;;;;;5.43;4.43;;;1.90;99.90;;;;;;5023542;28;20241;-91
2021/12/05 12:30:11;;;;;;;5.17;4.20;;;1.70;99.90;;;;;;5030212;28;20226;-90
2021/12/05 12:32:46;;;;;;;9.97;4.60;;;1.70;99.90;;;;;;5023738;28;20544;-92
2021/12/05 12:35:22;;;;;;;6.53;4.70;;;1.60;99.90;;;;;;5022683;28;20205;-92
2021/12/05 12:38:12;;;;;;;5.37;4.43;;;1.70;99.90;;;;;;5022916;28;20217;-91
2021/12/05 12:40:48;;;;;;;5.10;4.07;;;1.80;99.90;;;;;;5022775;28;20234;-91
2021/12/05 12:43:45;;;;;;;6.17;4.10;;;1.90;99.90;;;;;;5021818;28;20269;-89
2021/12/05 12:46:20;;;;;;;5.00;3.73;;;2.00;99.90;;;;;;5021987;28;20198;-90
2021/12/05 12:48:55;;;;;;;5.50;4.47;;;1.90;99.90;;;;;;5024026;28;20229;-91
2021/12/05 12:51:35;;;;;;;5.73;3.60;;;2.00;99.90;;;;;;5017707;28;20229;-91
2021/12/05 12:54:12;;;;;;;4.67;3.80;;;2.00;99.90;;;;;;5016692;28;20229;-92
2021/12/05 12:56:45;;;;;;;5.00;4.03;;;2.10;99.90;;;;;;5018083;28;20245;-90
2021/12/05 12:59:18;;;;;;;4.57;3.97;;;2.10;99.90;;;;;;5018760;28;20275;-91
2021/12/05 13:02:15;;;;;;;5.77;4.80;;;2.10;99.90;;;;;;5021251;28;20197;-91
2021/12/05 13:10:34;;;;;;;7.30;4.87;;;2.20;99.90;;;;;;5023427;28;20269;-91
2021/12/05 13:13:11;;;;;;;5.90;4.33;;;2.20;99.90;;;;;;5023067;28;20545;-92
2021/12/05 13:15:47;;;;;;;4.97;3.80;;;2.20;99.90;;;;;;5021256;28;20235;-92
2021/12/05 13:18:28;;;;;;;5.60;4.47;;;2.30;99.90;;;;;;5020791;28;20630;-92
2021/12/05 13:21:05;;;;;;;5.07;4.37;;;2.20;99.90;;;;;;5020485;28;20260;-92
2021/12/05 13:23:41;;;;;;;5.50;4.07;;;2.30;99.90;;;;;;5018106;28;20263;-92
2021/12/05 13:26:27;;;;;;;5.60;4.43;;;2.40;99.90;;;;;;5020443;28;20209;-93
2021/12/05 13:29:12;;;;;;;5.70;4.13;;;2.40;99.90;;;;;;5020574;28;20201;-92
2021/12/05 13:31:46;;;;;;;6.90;4.70;;;2.40;99.90;;;;;;5022567;28;20276;-92
2021/12/05 13:34:46;;;;;;;5.70;4.50;;;2.30;99.90;;;;;;5022555;28;20197;-91
2021/12/05 13:37:39;;;;;;;5.67;4.87;;;2.30;99.90;;;;;;5019181;28;20591;-91
2021/12/05 13:40:21;;;;;;;5.00;4.00;;;2.40;99.90;;;;;;5017872;28;20217;-91
2021/12/05 13:43:05;;;;;;;5.30;3.83;;;2.40;99.90;;;;;;5021214;28;20549;-91
2021/12/05 13:45:43;;;;;;;7.20;3.63;;;2.40;99.90;;;;;;5022459;28;20653;-90
2021/12/05 13:48:17;;;;;;;4.80;3.83;;;2.40;99.90;;;;;;5020157;28;20221;-91
2021/12/05 13:50:55;;;;;;;7.13;4.10;;;2.50;99.90;;;;;;5021211;28;20229;-91
2021/12/05 13:53:29;;;;;;;3.90;3.40;;;2.40;99.90;;;;;;5021162;28;20272;-91
2021/12/05 13:56:24;;;;;;;4.47;3.63;;;2.40;99.90;;;;;;5021847;28;20212;-91
2021/12/05 13:59:04;;;;;;;3.97;3.40;;;2.40;99.90;;;;;;5021112;28;20206;-91
2021/12/05 14:01:36;;;;;;;3.87;3.37;;;2.40;99.90;;;;;;5019603;28;20201;-92
2021/12/05 14:04:27;;;;;;;4.43;3.47;;;2.40;99.90;;;;;;5019672;28;20209;-91
2021/12/05 14:07:02;;;;;;;4.17;3.67;;;2.50;99.90;;;;;;5019146;28;20252;-93
2021/12/05 14:09:39;;;;;;;4.37;3.97;;;2.50;99.90;;;;;;5017920;28;20212;-91
2021/12/05 14:12:17;;;;;;;4.13;3.70;;;2.40;99.90;;;;;;5018520;28;20268;-91
2021/12/05 14:14:53;;;;;;;4.97;3.57;;;2.40;99.90;;;;;;5021851;28;21470;-91
2021/12/05 14:17:27;;;;;;;3.83;3.37;;;2.40;99.90;;;;;;5020227;28;20232;-92
2021/12/05 14:20:02;;;;;;;3.57;2.80;;;2.30;99.90;;;;;;5019305;28;20212;-90
2021/12/05 14:22:35;;;;;;;3.57;3.10;;;2.30;99.90;;;;;;5020706;28;20263;-92
2021/12/05 14:25:09;;;;;;;5.10;3.43;;;2.30;99.90;;;;;;5013157;28;20569;-92
2021/12/05 14:27:41;;;;;;;5.40;3.10;;;2.20;99.90;;;;;;5033365;28;20194;-88
2021/12/05 14:30:18;;;;;;;7.37;2.97;;;2.10;99.90;;;;;;5036739;28;20198;-91
2021/12/05 14:32:53;;;;;;;3.30;2.87;;;2.10;99.90;;;;;;5032614;28;20201;-92
2021/12/05 14:35:28;;;;;;;3.97;3.50;;;1.90;99.90;;;;;;5019835;28;20217;-92
2021/12/05 14:38:01;;;;;;;4.97;3.57;;;1.80;99.90;;;;;;5018851;28;20220;-92
2021/12/05 14:40:34;;;;;;;9.77;4.40;;;1.80;99.90;;;;;;5019044;28;20340;-91
2021/12/05 14:43:12;;;;;;;7.57;4.40;;;1.70;99.90;;;;;;5018626;28;20234;-92
2021/12/05 14:45:45;;;;;;;39.73;5.67;;;1.60;99.90;;;;;;5018666;28;20202;-93
2021/12/05 14:48:18;;;;;;;9.40;4.77;;;1.50;99.90;;;;;;5017246;28;20248;-92
2021/12/05 14:50:52;;;;;;;6.80;4.93;;;1.40;99.90;;;;;;5016897;28;20682;-92
2021/12/05 14:53:24;;;;;;;8.90;4.70;;;1.30;99.90;;;;;;5019721;28;20201;-92
2021/12/05 14:55:58;;;;;;;6.00;4.70;;;1.20;99.90;;;;;;5019008;28;20284;-92
2021/12/05 14:58:30;;;;;;;6.80;4.80;;;1.20;99.90;;;;;;5019751;28;20267;-92
2021/12/05 15:01:04;;;;;;;6.63;4.87;;;1.10;99.90;;;;;;5021033;28;20218;-91
2021/12/05 15:03:36;;;;;;;7.03;5.20;;;1.10;99.90;;;;;;5020559;28;20285;-92
2021/12/05 15:06:08;;;;;;;6.60;4.77;;;1.00;99.90;;;;;;5019356;28;20206;-91
2021/12/05 15:08:40;;;;;;;6.80;4.50;;;1.00;99.90;;;;;;5031446;28;20201;-93
2021/12/05 15:11:11;;;;;;;7.73;5.30;;;0.90;99.90;;;;;;5035017;28;20221;-93
2021/12/05 15:13:42;;;;;;;6.40;5.37;;;1.00;99.90;;;;;;5035302;28;20185;-94
2021/12/05 15:16:16;;;;;;;7.10;5.33;;;1.00;99.90;;;;;;5024672;28;20210;-92
2021/12/05 15:18:47;;;;;;;5.77;4.57;;;0.90;99.90;;;;;;5015526;28;20650;-92
2021/12/05 15:21:19;;;;;;;6.63;4.90;;;0.80;99.90;;;;;;5021559;28;20835;-92
2021/12/05 15:23:50;;;;;;;6.67;4.67;;;0.80;99.90;;;;;;5019641;28;20248;-93
2021/12/05 15:26:21;;;;;;;7.30;4.87;;;0.80;99.90;;;;;;5016815;28;20201;-92
2021/12/05 15:29:03;;;;;;;6.93;5.40;;;0.70;99.90;;;;;;5016738;28;20217;-93
2021/12/05 15:31:55;;;;;;;7.10;4.90;;;0.70;99.90;;;;;;5012609;28;20221;-92
2021/12/05 15:34:33;;;;;;;7.53;4.60;;;0.70;99.90;;;;;;5017085;28;20208;-93
2021/12/05 15:37:11;;;;;;;6.60;4.90;;;0.70;99.90;;;;;;5015729;28;20209;-92
2021/12/05 15:39:44;;;;;;;6.67;4.83;;;0.80;99.90;;;;;;5015603;28;20205;-91
2021/12/05 15:42:18;;;;;;;7.20;5.10;;;0.80;99.90;;;;;;5016620;28;20653;-92
2021/12/05 15:44:51;;;;;;;7.47;4.93;;;0.80;99.90;;;;;;5017667;28;20204;-93
2021/12/05 15:47:27;;;;;;;7.53;4.87;;;0.70;99.90;;;;;;5016247;28;20304;-91
2021/12/05 15:50:02;;;;;;;6.70;4.43;;;0.70;99.90;;;;;;5019284;28;20243;-92
2021/12/05 15:52:38;;;;;;;7.13;5.07;;;0.70;99.90;;;;;;5016950;28;20291;-92
2021/12/05 15:55:14;;;;;;;6.90;4.50;;;0.70;99.90;;;;;;5017986;28;20245;-89
2021/12/05 15:57:50;;;;;;;6.93;4.27;;;0.70;99.90;;;;;;5017814;28;20234;-92
2021/12/05 16:00:24;;;;;;;5.87;4.30;;;0.70;99.90;;;;;;5016719;28;20275;-92
2021/12/05 16:03:04;;;;;;;6.67;4.70;;;0.70;99.90;;;;;;5018426;28;20215;-93
2021/12/05 16:05:38;;;;;;;6.23;4.60;;;0.70;99.90;;;;;;5018929;28;20608;-91
2021/12/05 16:08:11;;;;;;;10.07;4.10;;;0.60;99.90;;;;;;5017848;28;20258;-92
2021/12/05 16:10:44;;;;;;;6.27;4.30;;;0.70;99.90;;;;;;5017251;28;20735;-92
2021/12/05 16:13:20;;;;;;;4.77;4.00;;;0.70;99.90;;;;;;5017722;28;20292;-91
2021/12/05 16:15:54;;;;;;;7.70;4.20;;;0.70;99.90;;;;;;5016729;28;20212;-92
2021/12/05 16:18:36;;;;;;;5.13;4.07;;;0.70;99.90;;;;;;5016622;28;20240;-91
2021/12/05 16:21:17;;;;;;;6.50;4.13;;;0.60;99.90;;;;;;5020942;28;20206;-92
2021/12/05 16:23:49;;;;;;;5.37;4.30;;;0.70;99.90;;;;;;5017650;28;20224;-91
2021/12/05 16:26:23;;;;;;;5.63;3.97;;;0.70;99.90;;;;;;5015197;28;20236;-92
2021/12/05 16:28:58;;;;;;;5.37;4.40;;;0.60;99.90;;;;;;5015630;28;20201;-92
2021/12/05 16:31:31;;;;;;;7.53;5.03;;;0.60;99.90;;;;;;5017012;28;20197;-92
2021/12/05 16:34:24;;;;;;;5.77;4.63;;;0.70;99.90;;;;;;5025328;28;20269;-92
2021/12/05 16:36:57;;;;;;;6.40;4.80;;;0.70;99.90;;;;;;5024503;28;20211;-92
2021/12/05 16:39:42;;;;;;;5.70;4.97;;;0.70;99.90;;;;;;5027300;28;20204;-92
2021/12/05 16:42:16;;;;;;;7.30;4.50;;;0.70;99.90;;;;;;5027713;28;20198;-91
2021/12/05 16:44:53;;;;;;;7.27;4.90;;;0.70;99.90;;;;;;5029770;28;20252;-91
2021/12/05 16:47:26;;;;;;;5.30;4.10;;;0.70;99.90;;;;;;5033087;28;20185;-92
2021/12/05 16:50:03;;;;;;;6.07;4.20;;;0.70;99.90;;;;;;5033410;28;20208;-93
2021/12/05 16:52:38;;;;;;;5.23;3.90;;;0.80;99.90;;;;;;5031981;28;20223;-92
2021/12/05 16:55:22;;;;;;;6.13;4.60;;;0.80;99.90;;;;;;5191701;23;20913;-88
2021/12/05 17:06:54;;;;;;;6.37;4.70;;;1.00;99.90;;;;;;5017287;28;20218;-92
2021/12/05 17:09:27;;;;;;;6.87;4.43;;;1.00;99.90;;;;;;5020320;28;20202;-91
2021/12/05 17:15:13;;;;;;;5.90;4.43;;;1.20;99.90;;;;;;5019571;28;20208;-92
2021/12/05 17:17:46;;;;;;;7.67;5.40;;;1.30;99.90;;;;;;5015924;28;20212;-92
2021/12/05 17:23:04;;;;;;;8.20;5.73;;;1.40;99.90;;;;;;5026969;28;20240;-92
2021/12/05 17:28:07;;;;;;;7.90;6.03;;;1.50;99.90;;;;;;5023187;28;20218;-93
2021/12/05 17:30:52;;;;;;;7.77;5.70;;;1.60;99.90;;;;;;5028298;28;20237;-93
2021/12/05 17:33:40;;;;;;;7.47;5.73;;;1.70;99.90;;;;;;5028404;28;20225;-92
2021/12/05 17:36:18;;;;;;;7.83;5.70;;;1.80;99.90;;;;;;5024825;28;20205;-92
2021/12/05 17:38:56;;;;;;;7.57;6.13;;;1.90;99.90;;;;;;5068432;22;20244;-92
2021/12/05 17:41:29;;;;;;;7.03;5.87;;;2.00;99.90;;;;;;5046057;28;20201;-93
2021/12/05 17:44:03;;;;;;;7.07;5.57;;;2.10;99.90;;;;;;5048890;28;20193;-93
2021/12/05 17:46:41;;;;;;;6.67;4.67;;;2.30;99.90;;;;;;5046913;28;20218;-92
2021/12/05 17:49:16;;;;;;;7.47;5.07;;;2.40;99.90;;;;;;5047602;28;20220;-92
2021/12/05 17:51:48;;;;;;;7.13;5.27;;;2.50;99.90;;;;;;5043814;28;20209;-93
2021/12/05 17:54:30;;;;;;;8.17;5.00;;;2.60;99.90;;;;;;5048449;28;20229;-93
2021/12/05 17:57:09;;;;;;;6.33;4.90;;;2.70;99.90;;;;;;5048847;28;20633;-92
2021/12/05 18:00:00;;;;;;;6.07;4.53;;;2.80;99.90;;;;;;5048178;28;20205;-91
2021/12/05 18:02:42;;;;;;;5.60;4.40;;;3.00;99.90;;;;;;5052248;28;20205;-91
2021/12/05 18:05:19;;;;;;;4.27;3.60;;;3.10;99.90;;;;;;5054262;28;20194;-90
2021/12/05 18:07:56;;;;;;;3.70;3.40;;;3.30;99.90;;;;;;5052088;28;20197;-89
2021/12/05 18:10:35;;;;;;;4.73;3.70;;;3.40;99.90;;;;;;5052169;28;20203;-90
2021/12/05 18:13:10;;;;;;;4.13;3.60;;;3.50;99.90;;;;;;5049682;28;20232;-90
2021/12/05 18:15:56;;;;;;;3.97;3.57;;;3.60;99.90;;;;;;5050327;28;20197;-90
2021/12/05 18:18:30;;;;;;;4.00;3.60;;;3.60;99.90;;;;;;5048607;28;20215;-90
2021/12/05 18:21:04;;;;;;;6.33;4.80;;;3.70;99.90;;;;;;5051184;28;20287;-89
2021/12/05 18:23:36;;;;;;;4.83;4.27;;;3.70;99.90;;;;;;5051042;28;20224;-91
2021/12/05 18:26:11;;;;;;;4.80;4.30;;;3.70;99.90;;;;;;5048987;28;20241;-91
2021/12/05 18:28:45;;;;;;;4.47;4.03;;;3.70;99.90;;;;;;5049175;28;20236;-90
2021/12/05 18:31:19;;;;;;;4.57;3.77;;;3.70;99.90;;;;;;5050729;28;20863;-90
2021/12/05 18:33:55;;;;;;;4.20;3.80;;;3.70;99.90;;;;;;5050118;28;20292;-92
2021/12/05 18:36:29;;;;;;;5.00;3.70;;;3.70;99.90;;;;;;5047901;28;20288;-91
2021/12/05 18:39:02;;;;;;;3.63;2.80;;;3.70;99.90;;;;;;5050194;28;20306;-90
2021/12/05 18:41:38;;;;;;;3.70;3.10;;;3.80;99.90;;;;;;5049814;28;20219;-92